createdAt,value
2022-11-29T17:25:35.865Z,9.43
2022-11-29T17:28:17.549Z,6.78
2022-11-29T17:30:54.436Z,8.77
2022-11-29T17:33:33.391Z,9.55
2022-11-29T17:36:12.668Z,10.20
2022-11-29T17:38:48.992Z,9.70
2022-11-29T17:41:25.869Z,9.65
2022-11-29T17:43:57.238Z,27.00
2022-11-29T17:46:39.904Z,8.90
2022-11-29T17:49:19.839Z,5.32
2022-11-29T17:51:52.184Z,8.35
2022-11-29T17:56:59.439Z,10.50
2022-11-29T17:59:32.350Z,5.47
2022-11-29T18:02:05.763Z,10.98
2022-11-29T18:04:37.082Z,3.83
2022-11-29T18:07:19.687Z,7.15
2022-11-29T18:09:56.052Z,8.05
2022-11-29T18:12:28.978Z,5.95
2022-11-29T18:15:01.957Z,6.30
2022-11-29T18:17:35.600Z,7.50
2022-11-29T18:20:13.607Z,6.40
2022-11-29T18:22:50.610Z,14.18
2022-11-29T18:25:41.380Z,12.07
2022-11-29T18:28:11.911Z,10.48
2022-11-29T18:30:50.846Z,6.72
2022-11-29T18:33:22.638Z,5.85
2022-11-29T18:35:55.688Z,6.28
2022-11-29T18:38:25.882Z,13.10
2022-11-29T18:40:57.772Z,6.47
2022-11-29T18:43:30.209Z,5.32
2022-11-29T18:45:57.439Z,7.57
2022-11-29T18:48:24.795Z,9.32
2022-11-29T18:50:52.890Z,10.80
2022-11-29T18:53:21.060Z,6.88
2022-11-29T18:56:02.404Z,6.90
2022-11-29T18:58:30.090Z,4.63
2022-11-29T19:01:15.383Z,7.10
2022-11-29T19:03:53.685Z,7.25
2022-11-29T19:06:24.525Z,8.85
2022-11-29T19:08:56.858Z,13.82
2022-11-29T19:11:33.074Z,11.18
2022-11-29T19:14:09.827Z,13.02
2022-11-29T19:16:41.035Z,9.02
2022-11-29T19:19:15.857Z,10.55
2022-11-29T19:21:43.312Z,11.13
2022-11-29T19:24:20.399Z,10.30
2022-11-29T19:26:49.342Z,9.05
2022-11-29T19:29:22.998Z,16.52
2022-11-29T19:31:59.073Z,20.75
2022-11-29T19:34:31.331Z,12.93
2022-11-29T19:37:03.057Z,16.45
2022-11-29T19:39:37.011Z,11.77
2022-11-29T19:42:17.310Z,14.55
2022-11-29T19:45:16.635Z,18.88
2022-11-29T19:47:50.593Z,18.08
2022-11-29T19:50:28.261Z,22.45
2022-11-29T19:53:16.567Z,23.23
2022-11-29T19:56:02.453Z,22.35
2022-11-29T19:58:35.136Z,19.17
2022-11-29T20:01:14.994Z,23.25
2022-11-29T20:03:55.690Z,17.52
2022-11-29T20:06:26.536Z,16.70
2022-11-29T20:09:08.907Z,15.45
2022-11-29T20:11:39.116Z,22.60
2022-11-29T20:14:08.320Z,24.73
2022-11-29T20:16:41.405Z,20.17
2022-11-29T20:19:17.565Z,16.38
2022-11-29T20:21:51.363Z,17.17
2022-11-29T20:24:23.759Z,16.80
2022-11-29T20:26:51.700Z,22.95
2022-11-29T20:29:33.706Z,17.70
2022-11-29T20:32:18.197Z,14.65
2022-11-29T20:34:54.489Z,26.95
2022-11-29T20:37:44.881Z,30.63
2022-11-29T20:40:24.643Z,19.38
2022-11-29T20:43:23.941Z,21.20
2022-11-29T20:45:56.224Z,24.30
2022-11-29T20:48:29.066Z,16.80
2022-11-29T20:51:15.381Z,18.98
2022-11-29T20:53:57.486Z,19.55
2022-11-29T20:56:31.708Z,21.00
2022-11-29T20:59:04.080Z,18.92
2022-11-29T21:01:42.775Z,20.45
2022-11-29T21:04:22.951Z,17.15
2022-11-29T21:06:57.902Z,16.38
2022-11-29T21:09:29.266Z,17.52
2022-11-29T21:12:02.791Z,17.48
2022-11-29T21:14:38.066Z,19.00
2022-11-29T21:17:14.754Z,17.58
2022-11-29T21:19:45.567Z,20.60
2022-11-29T21:22:41.778Z,20.58
2022-11-29T21:25:18.192Z,24.63
2022-11-29T21:28:02.713Z,21.85
2022-11-29T21:30:39.463Z,22.20
2022-11-29T21:33:15.452Z,17.90
2022-11-29T21:35:52.498Z,18.80
2022-11-29T21:38:30.883Z,15.95
2022-11-29T21:41:03.722Z,18.98
2022-11-29T21:44:05.558Z,20.00
2022-11-29T21:46:41.594Z,18.60
2022-11-29T21:49:15.755Z,15.48
2022-11-29T21:51:58.506Z,24.00
2022-11-29T21:54:30.260Z,23.55
2022-11-29T21:59:59.524Z,22.42
2022-11-29T22:02:49.952Z,20.75
2022-11-29T22:05:28.440Z,16.60
2022-11-29T22:07:56.365Z,19.35
2022-11-29T22:10:23.637Z,13.40
2022-11-29T22:12:52.588Z,14.00
2022-11-29T22:15:24.419Z,19.35
2022-11-29T22:17:53.899Z,16.75
2022-11-29T22:20:21.999Z,17.05
2022-11-29T22:22:55.734Z,15.63
2022-11-29T22:25:30.127Z,18.33
2022-11-29T22:28:00.006Z,16.90
2022-11-29T22:30:27.258Z,15.63
2022-11-29T22:32:57.360Z,16.13
2022-11-29T22:35:24.879Z,21.58
2022-11-29T22:37:54.198Z,17.30
2022-11-29T22:40:21.505Z,22.33
2022-11-29T22:42:50.871Z,17.95
2022-11-29T22:45:18.338Z,19.98
2022-11-29T22:47:45.730Z,19.42
2022-11-29T22:50:14.179Z,20.42
2022-11-29T22:52:41.438Z,16.60
2022-11-29T22:55:09.072Z,14.52
2022-11-29T22:57:39.099Z,19.13
2022-11-29T23:00:07.436Z,24.30
2022-11-29T23:02:34.725Z,19.45
2022-11-29T23:05:02.072Z,18.15
2022-11-29T23:07:29.228Z,19.63
2022-11-29T23:09:56.430Z,18.42
2022-11-29T23:12:26.216Z,14.13
2022-11-29T23:14:57.270Z,13.82
2022-11-29T23:17:27.801Z,18.70
2022-11-29T23:19:55.407Z,18.83
2022-11-29T23:22:29.902Z,21.85
2022-11-29T23:24:57.390Z,12.63
2022-11-29T23:27:27.554Z,12.43
2022-11-29T23:29:57.959Z,16.67
2022-11-29T23:32:28.191Z,18.05
2022-11-29T23:34:58.981Z,19.50
2022-11-29T23:37:29.996Z,15.45
2022-11-29T23:39:57.413Z,14.02
2022-11-29T23:42:26.303Z,21.95
2022-11-29T23:44:58.253Z,16.95
2022-11-29T23:47:26.641Z,12.75
2022-11-29T23:49:54.710Z,11.52
2022-11-29T23:52:23.271Z,14.93
2022-11-29T23:54:51.209Z,13.13
2022-11-29T23:57:21.599Z,11.10
2022-11-29T23:59:51.922Z,17.52
